Time;durP1;ratioP1;P1;durP2;ratioP2;P2;SDS_P1;SDS_P2;PMS_P1;PMS_P2;Temp;Humidity;BMP_temperature;BMP_pressure;BME280_temperature;BME280_humidity;BME280_pressure;Samples;Min_cycle;Max_cycle;Signal;HPM_P1;HPM_P2
2021/08/18 00:00:11;;;;;;;13.47;10.67;;;;;;;10.95;100.00;98170.69;5055019;28;20258;-71
2021/08/18 00:02:39;;;;;;;13.33;11.23;;;;;;;10.92;100.00;98171.03;5054356;28;20214;-70
2021/08/18 00:05:10;;;;;;;13.47;10.57;;;;;;;10.89;100.00;98171.34;5058805;28;20223;-70
2021/08/18 00:07:39;;;;;;;12.40;10.27;;;;;;;10.93;100.00;98169.19;5056766;28;20208;-70
2021/08/18 00:10:08;;;;;;;12.93;10.33;;;;;;;10.96;100.00;98169.72;5057643;28;20349;-70
2021/08/18 00:12:36;;;;;;;13.10;9.47;;;;;;;10.96;100.00;98174.16;5060540;28;20729;-70
2021/08/18 00:15:06;;;;;;;15.10;11.17;;;;;;;11.10;100.00;98170.91;5055207;28;20261;-70
2021/08/18 00:17:34;;;;;;;13.37;11.73;;;;;;;11.11;100.00;98169.06;5057028;28;20648;-69
2021/08/18 00:20:02;;;;;;;11.93;10.60;;;;;;;11.13;100.00;98164.41;5062212;28;20234;-69
2021/08/18 00:22:30;;;;;;;14.70;10.67;;;;;;;11.10;100.00;98162.94;5060362;28;20214;-71
2021/08/18 00:25:00;;;;;;;14.57;11.27;;;;;;;11.11;100.00;98161.09;5059839;28;20236;-69
2021/08/18 00:27:28;;;;;;;14.10;10.43;;;;;;;11.06;100.00;98158.13;5056153;28;20206;-70
2021/08/18 00:29:56;;;;;;;15.17;11.27;;;;;;;11.04;100.00;98165.41;5058688;28;20214;-71
2021/08/18 00:32:23;;;;;;;15.37;12.07;;;;;;;11.06;100.00;98160.75;5054637;28;20215;-70
2021/08/18 00:34:51;;;;;;;12.07;10.10;;;;;;;11.06;100.00;98150.16;5063198;28;20257;-71
2021/08/18 00:37:19;;;;;;;12.27;10.87;;;;;;;11.03;100.00;98158.44;5051227;28;20387;-70
2021/08/18 00:39:47;;;;;;;12.97;10.93;;;;;;;11.04;100.00;98154.81;5058700;28;20600;-70
2021/08/18 00:42:18;;;;;;;12.60;10.47;;;;;;;11.08;100.00;98156.97;5065803;28;20544;-71
2021/08/18 00:44:46;;;;;;;13.93;11.30;;;;;;;11.04;100.00;98149.50;5055477;28;20208;-71
2021/08/18 00:47:14;;;;;;;14.30;11.03;;;;;;;11.09;100.00;98153.31;5061819;28;20207;-68
2021/08/18 00:49:42;;;;;;;12.17;10.83;;;;;;;11.06;100.00;98156.31;5052556;28;20223;-70
2021/08/18 00:52:10;;;;;;;16.03;12.73;;;;;;;11.07;100.00;98157.97;5061215;28;20699;-71
2021/08/18 00:54:50;;;;;;;12.40;10.27;;;;;;;11.13;100.00;98148.50;5058898;28;20209;-70
2021/08/18 00:57:19;;;;;;;13.33;10.67;;;;;;;11.19;100.00;98155.84;5056053;28;20210;-70
2021/08/18 00:59:49;;;;;;;13.97;10.97;;;;;;;11.13;100.00;98146.69;5059637;28;20235;-70
2021/08/18 01:02:18;;;;;;;11.73;10.10;;;;;;;11.19;100.00;98147.03;5052669;28;20395;-70
2021/08/18 01:04:46;;;;;;;11.80;10.60;;;;;;;11.17;100.00;98146.38;5057262;28;20210;-71
2021/08/18 01:07:14;;;;;;;15.13;11.33;;;;;;;11.26;100.00;98145.38;5057900;28;20203;-70
2021/08/18 01:09:42;;;;;;;25.20;11.30;;;;;;;11.22;100.00;98150.19;5058518;28;20218;-71
2021/08/18 01:12:12;;;;;;;12.87;10.60;;;;;;;11.19;100.00;98145.22;5049345;28;20210;-70
2021/08/18 01:14:41;;;;;;;14.37;11.03;;;;;;;11.20;100.00;98143.38;5059668;28;20211;-69
2021/08/18 01:17:12;;;;;;;15.70;10.77;;;;;;;11.22;100.00;98139.59;5052573;28;20679;-69
2021/08/18 01:19:40;;;;;;;13.93;10.67;;;;;;;11.22;100.00;98147.53;5060375;28;20223;-70
2021/08/18 01:22:07;;;;;;;13.43;11.20;;;;;;;11.24;100.00;98140.25;5056353;28;20580;-70
2021/08/18 01:24:35;;;;;;;16.50;10.77;;;;;;;11.27;100.00;98147.03;5055746;28;20218;-70
2021/08/18 01:27:04;;;;;;;13.57;10.10;;;;;;;11.22;100.00;98141.41;5054777;28;20813;-70
2021/08/18 01:29:33;;;;;;;15.80;10.47;;;;;;;11.28;100.00;98135.44;5057939;28;20223;-68
2021/08/18 01:32:01;;;;;;;11.13;9.97;;;;;;;11.32;100.00;98135.94;5056253;28;20202;-66
2021/08/18 01:34:29;;;;;;;13.27;10.20;;;;;;;11.26;100.00;98132.13;5060423;28;20778;-66
2021/08/18 01:36:57;;;;;;;15.97;11.20;;;;;;;11.25;100.00;98131.31;5051451;28;20203;-69
2021/08/18 01:39:25;;;;;;;13.90;10.70;;;;;;;11.26;100.00;98134.75;5054019;28;20219;-68
2021/08/18 01:41:53;;;;;;;14.23;10.83;;;;;;;11.29;100.00;98134.44;5055120;28;20223;-68
2021/08/18 01:44:21;;;;;;;14.73;10.50;;;;;;;11.33;100.00;98135.75;5051712;28;20210;-67
2021/08/18 01:46:50;;;;;;;15.73;11.07;;;;;;;11.31;100.00;98132.44;5061630;28;20210;-69
2021/08/18 01:49:18;;;;;;;11.90;10.43;;;;;;;11.31;100.00;98129.78;5046125;28;20212;-68
2021/08/18 01:51:46;;;;;;;15.23;11.37;;;;;;;11.29;100.00;98123.81;5059240;28;20210;-68
2021/08/18 01:54:14;;;;;;;13.77;11.57;;;;;;;11.27;100.00;98129.31;5059694;28;20529;-68
2021/08/18 01:56:42;;;;;;;12.70;10.80;;;;;;;11.26;100.00;98129.47;5053322;28;20258;-69
2021/08/18 01:59:10;;;;;;;15.03;12.27;;;;;;;11.34;100.00;98132.09;5052655;28;20707;-69
2021/08/18 02:01:38;;;;;;;12.10;10.87;;;;;;;11.37;100.00;98139.75;5053468;28;20305;-68
2021/08/18 02:04:08;;;;;;;14.37;10.97;;;;;;;11.35;100.00;98135.59;5051231;28;20651;-69
2021/08/18 02:06:36;;;;;;;12.23;10.00;;;;;;;11.29;100.00;98135.28;5059605;28;20211;-67
2021/08/18 02:09:04;;;;;;;13.93;11.20;;;;;;;11.33;100.00;98130.44;5058675;28;20265;-67
2021/08/18 02:11:31;;;;;;;14.90;11.70;;;;;;;11.36;100.00;98134.59;5050081;28;20215;-69
2021/08/18 02:13:59;;;;;;;11.83;10.60;;;;;;;11.31;100.00;98132.44;5059447;28;20242;-68
2021/08/18 02:16:27;;;;;;;13.47;10.83;;;;;;;11.34;100.00;98139.25;5053657;28;20218;-69
2021/08/18 02:18:55;;;;;;;13.23;10.70;;;;;;;11.38;100.00;98124.66;5051486;28;20207;-69
2021/08/18 02:21:25;;;;;;;13.27;11.10;;;;;;;11.40;100.00;98127.97;5061003;28;20716;-68
2021/08/18 02:23:53;;;;;;;13.03;10.50;;;;;;;11.36;100.00;98127.47;5049058;28;20208;-69
2021/08/18 02:26:21;;;;;;;13.03;10.97;;;;;;;11.40;100.00;98125.31;5058594;28;20218;-66
2021/08/18 02:28:48;;;;;;;14.00;11.27;;;;;;;11.44;100.00;98122.19;5054403;28;20615;-68
2021/08/18 02:31:16;;;;;;;15.47;12.00;;;;;;;11.41;100.00;98129.63;5051512;28;20216;-66
2021/08/18 02:33:44;;;;;;;13.50;11.63;;;;;;;11.36;100.00;98124.81;5063366;28;20202;-68
2021/08/18 02:36:12;;;;;;;14.00;10.53;;;;;;;11.39;100.00;98127.16;5051472;28;20261;-67
2021/08/18 02:38:41;;;;;;;16.13;11.97;;;;;;;11.34;100.00;98131.28;5057144;28;20305;-68
2021/08/18 02:41:09;;;;;;;15.20;11.23;;;;;;;11.35;100.00;98127.66;5056438;28;20238;-67
2021/08/18 02:43:37;;;;;;;17.27;12.87;;;;;;;11.41;100.00;98133.13;5053728;28;20215;-69
2021/08/18 02:46:05;;;;;;;14.93;11.17;;;;;;;11.44;100.00;98131.94;5054520;28;20579;-68
2021/08/18 02:48:33;;;;;;;16.60;12.07;;;;;;;11.40;100.00;98130.63;5054133;28;20218;-69
2021/08/18 02:51:01;;;;;;;18.80;12.47;;;;;;;11.39;100.00;98134.28;5046884;28;20694;-70
2021/08/18 02:53:30;;;;;;;15.60;10.93;;;;;;;11.39;100.00;98135.13;5052136;28;20382;-69
2021/08/18 02:55:59;;;;;;;14.23;12.17;;;;;;;11.34;100.00;98133.94;5045974;28;20207;-70
2021/08/18 02:58:28;;;;;;;15.00;10.93;;;;;;;11.39;100.00;98136.94;5047293;28;20288;-69
2021/08/18 03:00:55;;;;;;;17.07;11.77;;;;;;;11.34;100.00;98136.59;5054254;28;20231;-70
2021/08/18 03:03:24;;;;;;;18.03;12.30;;;;;;;11.35;100.00;98132.94;5042741;28;20204;-67
2021/08/18 03:05:52;;;;;;;17.57;12.17;;;;;;;11.29;100.00;98135.28;5038509;28;20231;-69
2021/08/18 03:08:20;;;;;;;17.50;13.50;;;;;;;11.32;100.00;98133.28;5042683;28;20240;-69
2021/08/18 03:10:48;;;;;;;16.53;11.70;;;;;;;11.36;100.00;98139.91;5049402;28;20226;-69
2021/08/18 03:13:17;;;;;;;17.50;12.27;;;;;;;11.34;100.00;98133.94;5058826;28;20211;-68
2021/08/18 03:15:45;;;;;;;18.53;12.20;;;;;;;11.31;100.00;98136.94;5051926;28;20204;-70
2021/08/18 03:18:15;;;;;;;16.43;12.37;;;;;;;11.37;100.00;98130.97;5052628;28;20212;-69
2021/08/18 03:20:43;;;;;;;17.23;13.03;;;;;;;11.36;100.00;98122.16;5052272;28;20223;-69
2021/08/18 03:23:11;;;;;;;18.90;12.27;;;;;;;11.40;100.00;98131.47;5048136;28;20679;-70
2021/08/18 03:25:39;;;;;;;16.97;12.67;;;;;;;11.40;100.00;98135.94;5059855;28;20216;-70
2021/08/18 03:28:07;;;;;;;16.00;12.73;;;;;;;11.39;100.00;98127.16;5049619;28;20210;-67
2021/08/18 03:30:36;;;;;;;14.10;11.63;;;;;;;11.41;100.00;98126.97;5055512;28;20754;-66
2021/08/18 03:33:04;;;;;;;15.03;11.37;;;;;;;11.43;100.00;98120.53;5050917;28;20411;-67
2021/08/18 03:35:32;;;;;;;16.20;11.07;;;;;;;11.46;100.00;98127.31;5056676;28;20211;-67
2021/08/18 03:38:00;;;;;;;16.93;11.00;;;;;;;11.55;100.00;98121.03;5054814;28;20206;-67
2021/08/18 03:40:28;;;;;;;13.03;11.43;;;;;;;11.53;100.00;98122.97;5051389;28;20259;-67
2021/08/18 03:42:56;;;;;;;13.17;9.90;;;;;;;11.55;100.00;98123.69;5056752;28;20511;-66
2021/08/18 03:45:24;;;;;;;12.97;9.90;;;;;;;11.51;100.00;98119.66;5046888;28;20281;-67
2021/08/18 03:47:53;;;;;;;13.87;10.87;;;;;;;11.55;100.00;98114.88;5051990;28;20666;-66
2021/08/18 03:50:22;;;;;;;14.40;10.50;;;;;;;11.52;100.00;98118.66;5048905;28;20223;-66
2021/08/18 03:52:49;;;;;;;12.53;10.97;;;;;;;11.54;100.00;98122.00;5057259;28;20203;-67
2021/08/18 03:55:18;;;;;;;15.00;10.20;;;;;;;11.58;100.00;98127.81;5045707;28;20752;-66
2021/08/18 03:57:46;;;;;;;16.33;10.63;;;;;;;11.58;100.00;98128.66;5042915;28;20199;-66
2021/08/18 04:00:15;;;;;;;13.10;10.27;;;;;;;11.62;100.00;98134.44;5053104;28;20478;-67
2021/08/18 04:02:43;;;;;;;14.63;10.47;;;;;;;11.58;100.00;98128.66;5051044;28;20653;-67
2021/08/18 04:05:13;;;;;;;15.33;10.63;;;;;;;11.57;100.00;98127.00;5055265;28;20200;-66
2021/08/18 04:07:41;;;;;;;12.73;10.17;;;;;;;11.61;100.00;98127.47;5047262;28;20210;-64
2021/08/18 04:10:09;;;;;;;13.43;10.00;;;;;;;11.67;100.00;98129.44;5050610;28;20978;-63
2021/08/18 04:12:51;;;;;;;11.47;9.63;;;;;;;11.72;100.00;98140.38;5051055;28;20204;-66
2021/08/18 04:15:21;;;;;;;12.60;9.67;;;;;;;11.69;100.00;98140.72;5054784;28;20670;-67
2021/08/18 04:17:48;;;;;;;13.93;10.00;;;;;;;11.68;100.00;98138.25;5061117;28;20237;-66
2021/08/18 04:20:18;;;;;;;12.83;10.87;;;;;;;11.73;100.00;98139.38;5047653;28;20227;-65
2021/08/18 04:22:46;;;;;;;12.80;9.50;;;;;;;11.76;100.00;98135.59;5048889;28;20222;-65
2021/08/18 04:25:16;;;;;;;11.87;9.80;;;;;;;11.79;100.00;98134.44;5054680;28;20212;-67
2021/08/18 04:27:44;;;;;;;13.30;11.07;;;;;;;11.78;100.00;98133.59;5051623;28;20205;-66
2021/08/18 04:30:14;;;;;;;13.83;9.47;;;;;;;11.79;100.00;98129.94;5056181;28;20227;-65
2021/08/18 04:32:42;;;;;;;12.70;9.67;;;;;;;11.81;100.00;98132.44;5045938;28;20218;-67
2021/08/18 04:35:12;;;;;;;11.40;9.57;;;;;;;11.82;100.00;98136.75;5051767;28;20200;-67
2021/08/18 04:37:41;;;;;;;13.57;9.87;;;;;;;11.83;100.00;98120.63;5056371;28;20217;-67
2021/08/18 04:40:11;;;;;;;13.33;9.90;;;;;;;11.85;100.00;98123.94;5049164;28;20230;-66
2021/08/18 04:42:41;;;;;;;13.10;10.27;;;;;;;11.87;100.00;98118.47;5055984;28;20234;-66
2021/08/18 04:45:11;;;;;;;10.87;9.53;;;;;;;11.88;100.00;98126.25;5051364;28;20203;-67
2021/08/18 04:47:39;;;;;;;12.90;9.83;;;;;;;11.87;100.00;98124.59;5051970;28;20203;-66
2021/08/18 04:50:08;;;;;;;10.50;9.07;;;;;;;11.94;100.00;98124.75;5055933;28;20296;-67
2021/08/18 04:52:36;;;;;;;10.87;9.00;;;;;;;11.94;100.00;98121.28;5055960;28;20226;-67
2021/08/18 04:55:06;;;;;;;14.47;9.70;;;;;;;11.99;100.00;98122.41;5049950;28;20215;-66
2021/08/18 04:57:34;;;;;;;14.43;9.73;;;;;;;12.10;100.00;98115.13;5056202;28;20599;-67
2021/08/18 05:00:03;;;;;;;12.93;9.67;;;;;;;12.20;100.00;98115.75;5044749;28;20219;-66
2021/08/18 05:02:33;;;;;;;11.50;10.30;;;;;;;12.11;100.00;98122.09;5052797;28;20622;-66
2021/08/18 05:05:01;;;;;;;13.87;10.87;;;;;;;12.11;100.00;98127.41;5055827;28;20211;-67
2021/08/18 05:07:29;;;;;;;15.17;10.83;;;;;;;12.12;100.00;98129.91;5049578;28;20218;-67
2021/08/18 05:09:57;;;;;;;11.87;10.67;;;;;;;12.11;100.00;98128.25;5054692;28;20697;-66
2021/08/18 05:12:26;;;;;;;15.83;10.70;;;;;;;12.15;100.00;98128.75;5051390;28;20200;-66
2021/08/18 05:14:54;;;;;;;13.30;10.23;;;;;;;12.22;100.00;98136.84;5047852;28;20207;-66
2021/08/18 05:17:22;;;;;;;16.90;11.40;;;;;;;12.13;100.00;98131.56;5052042;28;20670;-65
2021/08/18 05:19:50;;;;;;;10.50;9.40;;;;;;;12.28;100.00;98130.81;5046647;28;20470;-66
2021/08/18 05:22:18;;;;;;;11.23;10.07;;;;;;;12.25;100.00;98133.84;5056019;28;20227;-68
2021/08/18 05:24:46;;;;;;;13.37;10.47;;;;;;;12.29;100.00;98127.16;5056951;28;20597;-67
2021/08/18 05:27:14;;;;;;;11.80;10.07;;;;;;;12.37;100.00;98132.47;5051061;28;20490;-66
2021/08/18 05:29:44;;;;;;;14.03;10.67;;;;;;;12.34;100.00;98131.97;5051100;28;20837;-66
2021/08/18 05:32:12;;;;;;;12.30;11.00;;;;;;;12.33;100.00;98133.81;5046144;28;20211;-67
2021/08/18 05:34:40;;;;;;;11.10;9.17;;;;;;;12.38;100.00;98130.63;5052468;28;20210;-66
2021/08/18 05:37:08;;;;;;;11.40;10.20;;;;;;;12.35;100.00;98139.78;5059294;28;20691;-66
2021/08/18 05:39:36;;;;;;;11.90;9.80;;;;;;;12.45;100.00;98140.41;5051129;28;20700;-67
2021/08/18 05:42:05;;;;;;;11.90;9.73;;;;;;;12.40;100.00;98132.13;5052432;28;20211;-67
2021/08/18 05:44:33;;;;;;;11.47;9.83;;;;;;;12.44;100.00;98135.25;5050871;28;20632;-66
2021/08/18 05:47:02;;;;;;;13.63;9.97;;;;;;;12.39;100.00;98148.25;5047719;28;20275;-64
2021/08/18 05:49:30;;;;;;;11.03;9.77;;;;;;;12.39;100.00;98141.09;5050274;28;20267;-67
2021/08/18 05:51:58;;;;;;;11.30;10.10;;;;;;;12.48;100.00;98141.88;5052732;28;20315;-67
2021/08/18 05:54:26;;;;;;;14.53;9.73;;;;;;;12.55;100.00;98137.56;5054102;28;20210;-67
2021/08/18 05:56:54;;;;;;;11.50;10.20;;;;;;;12.52;100.00;98137.91;5054547;28;20211;-67
2021/08/18 05:59:22;;;;;;;11.70;9.43;;;;;;;12.55;100.00;98139.38;5050554;28;20810;-65
2021/08/18 06:01:50;;;;;;;11.67;10.57;;;;;;;12.59;100.00;98146.84;5053650;28;20438;-66
2021/08/18 06:04:19;;;;;;;11.20;10.10;;;;;;;12.60;100.00;98142.34;5054878;28;20455;-66
2021/08/18 06:06:47;;;;;;;15.77;10.23;;;;;;;12.62;100.00;98140.31;5047281;28;20238;-67
2021/08/18 06:09:15;;;;;;;13.50;10.53;;;;;;;12.53;100.00;98149.34;5056624;28;20212;-68
2021/08/18 06:11:47;;;;;;;14.20;10.90;;;;;;;12.53;100.00;98147.53;5044358;28;20220;-67
2021/08/18 06:14:15;;;;;;;11.67;10.27;;;;;;;12.59;100.00;98148.66;5049199;28;20203;-66
2021/08/18 06:16:43;;;;;;;14.53;10.93;;;;;;;12.64;100.00;98148.16;5063293;28;20195;-67
2021/08/18 06:19:11;;;;;;;13.60;9.97;;;;;;;12.64;100.00;98148.94;5050606;28;20683;-67
2021/08/18 06:21:40;;;;;;;12.70;10.53;;;;;;;12.59;100.00;98144.19;5058680;28;20207;-66
2021/08/18 06:24:16;;;;;;;12.43;9.97;;;;;;;12.72;100.00;98146.28;5051659;28;20227;-66
2021/08/18 06:26:44;;;;;;;11.23;10.03;;;;;;;12.70;100.00;98144.78;5064870;28;20290;-67
2021/08/18 06:29:12;;;;;;;11.70;10.17;;;;;;;12.70;100.00;98139.47;5045878;28;20211;-66
2021/08/18 06:31:40;;;;;;;12.87;10.33;;;;;;;12.70;100.00;98153.59;5051031;28;20202;-67
2021/08/18 06:34:11;;;;;;;14.27;10.80;;;;;;;12.62;100.00;98142.97;5046441;28;20733;-66
2021/08/18 06:36:41;;;;;;;11.83;10.53;;;;;;;12.61;100.00;98143.19;5052481;28;20232;-67
2021/08/18 06:39:08;;;;;;;12.60;9.83;;;;;;;12.68;100.00;98146.78;5053667;28;20532;-67
2021/08/18 06:41:36;;;;;;;11.93;10.27;;;;;;;12.62;100.00;98148.31;5053993;28;20207;-67
2021/08/18 06:44:05;;;;;;;16.80;11.30;;;;;;;12.64;100.00;98148.94;5050601;28;20456;-68
2021/08/18 06:46:35;;;;;;;12.90;10.87;;;;;;;12.59;100.00;98149.50;5052689;28;20531;-66
2021/08/18 06:49:03;;;;;;;12.23;10.60;;;;;;;12.62;100.00;98150.16;5049721;28;20253;-67
2021/08/18 06:51:31;;;;;;;11.60;9.60;;;;;;;12.66;100.00;98154.13;5056589;28;20238;-67
2021/08/18 06:54:00;;;;;;;14.00;9.93;;;;;;;12.78;100.00;98146.59;5051115;28;20714;-66
2021/08/18 06:56:28;;;;;;;14.30;10.87;;;;;;;12.76;100.00;98151.25;5054274;28;20640;-67
2021/08/18 06:58:56;;;;;;;11.10;10.00;;;;;;;12.74;100.00;98154.91;5049735;28;20207;-67
2021/08/18 07:01:24;;;;;;;12.83;10.63;;;;;;;12.81;100.00;98154.22;5054801;28;20720;-67
2021/08/18 07:03:52;;;;;;;11.37;10.20;;;;;;;12.88;100.00;98161.31;5054245;28;20222;-66
2021/08/18 07:06:20;;;;;;;14.73;9.87;;;;;;;13.07;100.00;98153.03;5053681;28;20253;-66
2021/08/18 07:08:48;;;;;;;11.57;10.43;;;;;;;12.95;100.00;98153.44;5052775;28;20218;-67
2021/08/18 07:11:18;;;;;;;13.10;9.17;;;;;;;13.06;100.00;98156.72;5055898;28;20590;-67
2021/08/18 07:13:45;;;;;;;13.50;11.40;;;;;;;13.10;100.00;98163.34;5053932;28;20438;-67
2021/08/18 07:16:13;;;;;;;10.90;9.80;;;;;;;13.18;100.00;98155.31;5047208;28;20549;-67
2021/08/18 07:18:41;;;;;;;11.13;9.73;;;;;;;13.40;100.00;98147.50;5053769;28;20210;-67
2021/08/18 07:21:09;;;;;;;11.23;10.13;;;;;;;13.50;100.00;98157.94;5048460;28;20223;-67
2021/08/18 07:23:37;;;;;;;12.90;9.10;;;;;;;13.65;100.00;98156.16;5060080;28;20242;-66
2021/08/18 07:26:05;;;;;;;9.93;8.93;;;;;;;13.78;100.00;98160.03;5049084;28;20211;-67
2021/08/18 07:28:35;;;;;;;10.10;9.10;;;;;;;13.59;100.00;98159.53;5054000;28;20211;-68
2021/08/18 07:31:03;;;;;;;8.80;8.00;;;;;;;13.51;100.00;98154.28;5041061;28;20342;-66
2021/08/18 07:33:31;;;;;;;9.90;8.90;;;;;;;13.37;100.00;98159.34;5050934;28;20203;-67
2021/08/18 07:35:59;;;;;;;10.10;9.10;;;;;;;13.46;100.00;98160.97;5052121;28;20646;-68
2021/08/18 07:38:27;;;;;;;10.47;9.40;;;;;;;13.60;100.00;98156.69;5051476;28;20199;-67
2021/08/18 07:40:56;;;;;;;8.70;7.97;;;;;;;13.69;100.00;98167.25;5057411;28;20609;-66
2021/08/18 07:43:24;;;;;;;8.93;8.13;;;;;;;13.71;100.00;98165.25;5048507;28;20250;-67
2021/08/18 07:45:53;;;;;;;9.77;8.73;;;;;;;13.68;100.00;98154.97;5046333;28;20196;-67
2021/08/18 07:48:21;;;;;;;10.40;9.40;;;;;;;13.50;100.00;98164.09;5048465;28;20203;-66
2021/08/18 07:50:49;;;;;;;10.77;8.50;;;;;;;13.68;100.00;98161.13;5056187;28;20229;-67
2021/08/18 07:53:17;;;;;;;9.77;8.87;;;;;;;13.63;100.00;98165.31;5049535;28;20204;-65
2021/08/18 07:55:45;;;;;;;10.23;9.10;;;;;;;13.74;100.00;98170.22;5056883;28;20503;-67
2021/08/18 07:58:13;;;;;;;10.07;9.13;;;;;;;13.81;100.00;98175.66;5046267;28;20243;-67
2021/08/18 08:00:41;;;;;;;10.00;9.00;;;;;;;13.65;100.00;98166.81;5047571;28;20233;-66
2021/08/18 08:03:11;;;;;;;10.13;8.93;;;;;;;13.63;100.00;98168.81;5053528;28;20710;-65
2021/08/18 08:05:39;;;;;;;9.50;8.60;;;;;;;13.55;100.00;98167.06;5068900;28;20302;-67
2021/08/18 08:08:07;;;;;;;9.73;8.83;;;;;;;13.64;100.00;98170.50;5048902;28;20571;-68
2021/08/18 08:10:35;;;;;;;9.87;8.30;;;;;;;13.73;100.00;98173.88;5061478;28;20242;-66
2021/08/18 08:13:07;;;;;;;10.00;8.90;;;;;;;13.67;100.00;98170.13;5049284;28;20203;-68
2021/08/18 08:15:35;;;;;;;9.03;8.23;;;;;;;13.67;100.00;98174.59;5053468;28;20203;-67
2021/08/18 08:18:03;;;;;;;10.37;9.37;;;;;;;13.58;100.00;98182.66;5059574;28;20204;-66
2021/08/18 08:20:33;;;;;;;9.40;8.27;;;;;;;13.61;100.00;98181.47;5053992;28;20234;-67
2021/08/18 08:23:02;;;;;;;9.37;8.47;;;;;;;13.57;100.00;98180.16;5060938;28;20210;-65
2021/08/18 08:25:30;;;;;;;9.70;8.80;;;;;;;13.72;100.00;98178.41;5052729;28;20238;-67
2021/08/18 08:27:58;;;;;;;9.43;8.47;;;;;;;13.84;100.00;98184.13;5061373;28;20203;-66
2021/08/18 08:30:26;;;;;;;9.57;8.67;;;;;;;13.83;100.00;98184.28;5051879;28;20219;-65
2021/08/18 08:32:54;;;;;;;8.83;7.90;;;;;;;13.90;100.00;98185.22;5050402;28;20204;-66
2021/08/18 08:35:23;;;;;;;9.27;8.33;;;;;;;13.94;100.00;98180.38;5058881;28;20200;-67
2021/08/18 08:37:52;;;;;;;10.07;8.43;;;;;;;14.01;100.00;98184.78;5047500;28;20227;-66
2021/08/18 08:40:20;;;;;;;9.03;8.17;;;;;;;14.18;100.00;98182.78;5054705;28;20358;-67
2021/08/18 08:42:48;;;;;;;9.00;8.20;;;;;;;14.14;100.00;98183.34;5055085;28;20194;-67
2021/08/18 08:45:17;;;;;;;9.03;7.60;;;;;;;14.46;100.00;98176.00;5055813;28;20215;-67
2021/08/18 08:47:45;;;;;;;7.50;6.90;;;;;;;14.52;100.00;98177.09;5048415;28;20200;-66
2021/08/18 08:50:14;;;;;;;9.00;8.13;;;;;;;14.42;100.00;98178.19;5053465;28;20437;-67
2021/08/18 08:52:42;;;;;;;8.13;7.43;;;;;;;14.35;100.00;98177.28;5061356;28;20221;-68
2021/08/18 08:55:12;;;;;;;8.73;8.03;;;;;;;14.51;100.00;98176.28;5048583;28;20231;-68
2021/08/18 08:57:46;;;;;;;8.27;6.67;;;;;;;14.51;100.00;98175.44;5056138;28;20209;-66
2021/08/18 09:00:15;;;;;;;8.63;7.93;;;;;;;14.58;100.00;98171.84;5048240;28;20227;-67
2021/08/18 09:02:43;;;;;;;9.37;7.33;;;;;;;14.46;100.00;98174.16;5058239;28;20213;-67
2021/08/18 09:05:11;;;;;;;7.90;7.20;;;;;;;14.56;100.00;98176.53;5051937;28;20312;-68
2021/08/18 09:07:39;;;;;;;7.47;6.87;;;;;;;14.38;100.00;98184.91;5052857;28;20496;-67
2021/08/18 09:10:08;;;;;;;7.27;6.67;;;;;;;14.44;100.00;98186.84;5052081;28;21062;-65
2021/08/18 09:12:38;;;;;;;8.47;7.73;;;;;;;14.34;100.00;98186.28;5053965;28;20631;-67
2021/08/18 09:15:16;;;;;;;6.93;6.43;;;;;;;14.56;100.00;98189.03;5048483;28;20282;-68
2021/08/18 09:17:45;;;;;;;9.00;6.73;;;;;;;14.55;100.00;98192.72;5047594;28;20207;-67
2021/08/18 09:20:15;;;;;;;7.73;7.10;;;;;;;14.33;100.00;98197.97;5049584;28;20219;-68
2021/08/18 09:22:45;;;;;;;7.20;6.70;;;;;;;14.35;100.00;98185.28;5058928;28;20484;-67
2021/08/18 09:25:17;;;;;;;7.73;7.03;;;;;;;14.31;100.00;98198.13;5049143;28;20224;-67
2021/08/18 09:27:48;;;;;;;7.47;6.83;;;;;;;14.27;100.00;98190.72;5062041;28;20221;-67
2021/08/18 09:30:23;;;;;;;7.90;7.27;;;;;;;14.34;100.00;98194.28;5047446;28;20238;-67
2021/08/18 09:32:51;;;;;;;7.00;6.43;;;;;;;14.39;100.00;98186.56;5050983;28;20711;-67
2021/08/18 09:35:21;;;;;;;7.63;6.93;;;;;;;14.39;100.00;98183.91;5058227;28;20893;-67
2021/08/18 09:37:59;;;;;;;8.63;7.93;;;;;;;14.36;100.00;98189.59;5053498;28;20635;-67
2021/08/18 09:40:28;;;;;;;7.20;6.50;;;;;;;14.36;100.00;98186.94;5055741;28;20223;-68
2021/08/18 09:43:14;;;;;;;8.23;7.00;;;;;;;14.30;100.00;98190.34;5051066;28;20723;-68
2021/08/18 09:45:44;;;;;;;7.83;7.20;;;;;;;14.29;100.00;98183.34;5052125;28;20270;-67
2021/08/18 09:48:16;;;;;;;7.37;6.67;;;;;;;14.32;100.00;98198.97;5053415;28;20207;-67
2021/08/18 09:50:46;;;;;;;7.57;6.87;;;;;;;14.35;100.00;98187.94;5061423;28;20229;-67
2021/08/18 09:53:16;;;;;;;8.17;7.40;;;;;;;14.44;100.00;98192.16;5053589;28;20200;-66
2021/08/18 09:55:50;;;;;;;7.53;6.83;;;;;;;14.57;100.00;98193.34;5056592;28;20215;-66
2021/08/18 09:58:21;;;;;;;8.23;7.33;;;;;;;14.58;100.00;98187.00;5052172;28;20199;-65
2021/08/18 10:00:49;;;;;;;8.30;6.87;;;;;;;14.84;100.00;98185.72;5052831;28;20235;-66
2021/08/18 10:03:18;;;;;;;7.33;6.63;;;;;;;14.94;100.00;98193.44;5051384;28;20475;-67
2021/08/18 10:05:48;;;;;;;7.87;6.97;;;;;;;14.87;100.00;98188.84;5060417;28;20224;-67
2021/08/18 10:08:16;;;;;;;6.80;6.20;;;;;;;14.95;100.00;98189.75;5056948;28;20430;-66
2021/08/18 10:10:44;;;;;;;6.53;5.93;;;;;;;14.93;100.00;98194.47;5059432;28;20226;-68
2021/08/18 10:13:12;;;;;;;8.77;7.93;;;;;;;14.77;100.00;98190.97;5055163;28;20579;-67
2021/08/18 10:15:41;;;;;;;8.87;8.13;;;;;;;14.73;100.00;98193.19;5052161;28;20218;-67
2021/08/18 10:18:11;;;;;;;7.57;6.97;;;;;;;14.88;100.00;98187.84;5051193;28;20203;-67
2021/08/18 10:20:39;;;;;;;8.30;7.60;;;;;;;14.86;100.00;98191.69;5057774;28;20629;-66
2021/08/18 10:23:10;;;;;;;7.60;6.97;;;;;;;15.06;100.00;98186.59;5052653;28;20214;-67
2021/08/18 10:25:40;;;;;;;7.53;7.03;;;;;;;15.50;100.00;98192.81;5056922;28;20234;-67
2021/08/18 10:28:08;;;;;;;8.27;6.93;;;;;;;15.55;100.00;98193.06;5060867;28;20227;-68
2021/08/18 10:30:54;;;;;;;8.73;8.00;;;;;;;15.71;100.00;98186.63;5052482;28;20226;-68
2021/08/18 10:34:00;;;;;;;8.07;7.47;;;;;;;15.58;100.00;98194.53;5059211;28;20302;-67
2021/08/18 10:37:03;;;;;;;7.40;6.73;;;;;;;15.33;100.00;98190.38;5055008;28;20203;-68
2021/08/18 10:39:37;;;;;;;8.17;7.47;;;;;;;15.54;100.00;98185.25;5059376;28;20443;-67
2021/08/18 10:42:09;;;;;;;7.20;6.60;;;;;;;15.78;100.00;98186.69;5050650;28;20226;-67
2021/08/18 10:44:42;;;;;;;7.33;6.67;;;;;;;15.96;100.00;98183.56;5048680;28;20227;-67
2021/08/18 10:47:17;;;;;;;6.67;6.07;;;;;;;15.98;100.00;98191.38;5056473;28;20750;-67
2021/08/18 10:49:47;;;;;;;8.20;7.27;;;;;;;15.99;100.00;98195.72;5048041;28;20234;-68
2021/08/18 10:52:53;;;;;;;7.83;7.13;;;;;;;15.92;100.00;98179.63;5054686;28;20793;-68
2021/08/18 10:55:40;;;;;;;7.40;6.70;;;;;;;16.35;100.00;98181.34;5050268;28;20236;-66
2021/08/18 10:58:27;;;;;;;7.90;7.20;;;;;;;16.55;100.00;98186.00;5052407;28;20261;-67
2021/08/18 11:00:55;;;;;;;7.00;6.40;;;;;;;16.19;100.00;98183.31;5051156;28;20716;-67
2021/08/18 11:03:30;;;;;;;7.27;6.77;;;;;;;16.20;100.00;98182.31;5046685;28;20668;-68
2021/08/18 11:05:59;;;;;;;7.70;7.03;;;;;;;15.95;100.00;98181.91;5061898;28;20217;-67
2021/08/18 11:08:28;;;;;;;7.27;5.97;;;;;;;16.05;100.00;98181.56;5052856;28;20207;-67
2021/08/18 11:11:27;;;;;;;7.07;6.50;;;;;;;16.12;100.00;98182.47;5053782;28;20255;-68
2021/08/18 11:14:08;;;;;;;7.03;6.43;;;;;;;16.20;100.00;98184.97;5047148;28;20203;-67
2021/08/18 11:16:36;;;;;;;6.37;5.83;;;;;;;16.11;100.00;98180.81;5054293;28;20946;-68
2021/08/18 11:19:09;;;;;;;7.87;7.13;;;;;;;16.36;100.00;98177.66;5052039;28;20514;-67
2021/08/18 11:21:39;;;;;;;6.87;6.37;;;;;;;16.57;100.00;98170.56;5049051;28;20207;-67
2021/08/18 11:24:09;;;;;;;6.70;6.17;;;;;;;16.54;100.00;98170.97;5047537;28;20203;-68